Bayside, California
Current Conditions -  °F | °C
As of 8:53 AM on Friday 28 Nov 2014 (Local Time) from KACV Reporting Station
Light Rain Light Rain  
Wind Chill: 55°   Ceiling: 5000
Heat Index: 55°   Visibility: 9mi
Dew Point: 51°   Wind: 15mph
Humidity: 86%   Direction: 140°SE
Pressure: 29.86"   Gusts: 24mph
Location:  40.84°N, 124.06°W
Report Text: KACV 281653Z AUTO 14013G21KT 9SM -RA SCT039 BKN050 OVC070 13/11 A2986 RMK AO2 SLP117 P0011 T01280106
Loading
Personal Weather Stations






























Interactive Weather Map New forecast layout! Learn more

10-Day Weather Forecast

Advertisements
Track Severe Weather on mobile